createdAt,value
2023-05-17T00:03:21.812Z,95.00
2023-05-17T00:07:24.612Z,95.02
2023-05-17T00:11:27.338Z,93.66
2023-05-17T00:15:31.482Z,93.27
2023-05-17T00:19:34.177Z,93.01
2023-05-17T00:23:36.876Z,94.38
2023-05-17T00:33:02.389Z,94.20
2023-05-17T00:37:04.988Z,94.97
2023-05-17T00:41:07.623Z,94.57
2023-05-17T00:45:11.110Z,94.31
2023-05-17T00:49:14.969Z,95.66
2023-05-17T00:53:17.610Z,94.39
2023-05-17T00:57:20.469Z,94.66
2023-05-17T01:01:23.092Z,94.65
2023-05-17T01:05:28.727Z,95.60
2023-05-17T01:09:31.990Z,96.21
2023-05-17T01:13:41.069Z,99.15
2023-05-17T01:17:52.153Z,98.40
2023-05-17T01:22:06.008Z,98.06
2023-05-17T01:26:12.129Z,98.23
2023-05-17T01:30:18.124Z,98.20
2023-05-17T01:34:26.449Z,97.96
2023-05-17T01:38:29.234Z,99.60
2023-05-17T01:42:33.350Z,98.57
2023-05-17T01:46:40.496Z,98.65
2023-05-17T01:50:44.037Z,99.99
2023-05-17T01:54:49.417Z,98.15
2023-05-17T01:58:53.624Z,99.33
2023-05-17T02:02:57.689Z,99.57
2023-05-17T02:07:00.475Z,99.18
2023-05-17T02:11:03.129Z,98.61
2023-05-17T02:15:07.804Z,98.11
2023-05-17T02:19:13.173Z,95.07
2023-05-17T02:23:16.178Z,92.59
2023-05-17T02:27:18.810Z,92.70
2023-05-17T02:31:21.430Z,93.83
2023-05-17T02:35:25.569Z,93.39
2023-05-17T02:39:28.248Z,92.72
2023-05-17T02:43:31.092Z,91.12
2023-05-17T02:47:33.800Z,92.85
2023-05-17T02:51:37.911Z,92.14
2023-05-17T02:55:40.639Z,92.54
2023-05-17T02:59:43.404Z,92.65
2023-05-17T03:03:46.183Z,92.02
2023-05-17T03:07:50.335Z,91.76
2023-05-17T03:11:52.871Z,91.38
2023-05-17T03:15:55.496Z,92.11
2023-05-17T03:19:58.171Z,91.62
2023-05-17T03:24:02.249Z,92.01
2023-05-17T03:28:05.231Z,90.73
2023-05-17T03:32:08.398Z,90.44
2023-05-17T03:36:11.136Z,91.17
2023-05-17T03:40:15.205Z,90.91
2023-05-17T03:44:17.889Z,91.57
2023-05-17T03:48:20.577Z,90.47
2023-05-17T03:52:23.305Z,92.30
2023-05-17T03:56:27.611Z,91.13
2023-05-17T04:00:30.356Z,90.46
2023-05-17T04:04:33.115Z,90.28
2023-05-17T04:08:36.522Z,90.43
2023-05-17T04:12:40.546Z,91.88
2023-05-17T04:16:43.214Z,93.82
2023-05-17T04:20:45.973Z,94.37
2023-05-17T04:24:48.677Z,94.72
2023-05-17T04:28:52.684Z,95.28
2023-05-17T04:32:55.790Z,94.48
2023-05-17T04:36:58.537Z,94.08
2023-05-17T04:41:05.108Z,94.01
2023-05-17T04:45:10.600Z,93.95
2023-05-17T04:49:13.299Z,93.07
2023-05-17T04:53:16.718Z,89.96
2023-05-17T04:57:19.398Z,89.66
2023-05-17T05:01:23.416Z,89.86
2023-05-17T05:05:26.375Z,89.34
2023-05-17T05:09:29.282Z,89.24
2023-05-17T05:13:33.088Z,83.21
2023-05-17T05:17:36.979Z,72.56
2023-05-17T05:21:39.671Z,66.96
2023-05-17T05:25:42.351Z,64.15
2023-05-17T05:29:45.007Z,61.58
2023-05-17T05:33:49.976Z,64.47
2023-05-17T05:37:52.663Z,63.68
2023-05-17T05:41:55.346Z,65.16
2023-05-17T05:45:57.992Z,61.34
2023-05-17T05:50:02.071Z,66.68
2023-05-17T05:54:04.813Z,63.59
2023-05-17T05:58:07.499Z,60.52
2023-05-17T06:02:10.473Z,57.11
2023-05-17T06:06:16.615Z,55.04
2023-05-17T06:10:19.574Z,56.96
2023-05-17T06:14:22.408Z,49.70
2023-05-17T06:18:25.169Z,50.43
2023-05-17T06:22:29.486Z,52.47
2023-05-17T06:26:32.497Z,58.58
2023-05-17T06:30:35.155Z,67.04
2023-05-17T06:34:39.971Z,72.09
2023-05-17T06:38:44.003Z,70.92
2023-05-17T06:42:46.676Z,67.52
2023-05-17T06:46:49.550Z,68.45
2023-05-17T06:50:52.181Z,66.90
2023-05-17T06:54:56.222Z,69.53
2023-05-17T06:58:59.498Z,69.22
2023-05-17T07:03:02.294Z,70.49
2023-05-17T07:07:05.263Z,70.08
2023-05-17T07:11:09.409Z,70.67
2023-05-17T07:15:12.719Z,70.30
2023-05-17T07:19:15.446Z,68.72
2023-05-17T07:23:18.246Z,72.34
2023-05-17T07:27:22.278Z,67.18
2023-05-17T07:31:24.964Z,70.74
2023-05-17T07:35:27.846Z,67.99
2023-05-17T07:39:30.754Z,71.13
2023-05-17T07:43:34.808Z,67.50
2023-05-17T07:47:37.630Z,66.93
2023-05-17T07:51:40.469Z,69.36
2023-05-17T07:55:52.565Z,69.02
2023-05-17T07:59:56.603Z,68.94
2023-05-17T08:03:59.293Z,69.06
2023-05-17T08:08:02.204Z,68.09
2023-05-17T08:12:05.369Z,69.40
2023-05-17T08:16:14.053Z,64.44
2023-05-17T08:20:17.826Z,68.79
2023-05-17T08:24:20.808Z,69.53
2023-05-17T08:28:23.469Z,70.00
2023-05-17T08:32:28.131Z,69.96
2023-05-17T08:36:31.814Z,69.22
2023-05-17T08:40:34.567Z,65.03
2023-05-17T08:44:38.732Z,66.82
2023-05-17T08:48:44.054Z,69.94
2023-05-17T08:52:47.358Z,70.08
2023-05-17T08:56:52.635Z,67.54
2023-05-17T09:00:56.160Z,60.35
2023-05-17T09:05:01.043Z,62.22
2023-05-17T09:09:04.030Z,62.29
2023-05-17T09:13:06.684Z,59.33
2023-05-17T09:17:09.387Z,60.80
2023-05-17T09:21:14.529Z,60.61
2023-05-17T09:25:20.617Z,62.76
2023-05-17T09:29:23.277Z,62.12
2023-05-17T09:33:26.282Z,65.39
2023-05-17T09:37:30.915Z,65.93
2023-05-17T09:41:34.728Z,68.17
2023-05-17T09:45:37.700Z,60.41
2023-05-17T09:49:40.357Z,65.08
2023-05-17T09:53:44.537Z,62.22
2023-05-17T09:57:48.774Z,58.71
2023-05-17T10:01:51.570Z,59.31
2023-05-17T10:05:54.648Z,58.15
2023-05-17T10:09:59.497Z,64.45
2023-05-17T10:14:11.250Z,61.45
2023-05-17T10:18:14.462Z,61.36
2023-05-17T10:22:23.333Z,62.14
2023-05-17T10:26:28.522Z,63.44
2023-05-17T10:30:31.242Z,61.95
2023-05-17T10:34:35.261Z,60.53
2023-05-17T10:38:42.655Z,61.32
2023-05-17T10:42:51.911Z,62.45
2023-05-17T10:46:56.068Z,62.79
2023-05-17T10:51:01.779Z,60.89
2023-05-17T10:55:05.139Z,60.94
2023-05-17T10:59:21.675Z,64.29
2023-05-17T11:03:29.325Z,58.10
2023-05-17T11:07:34.856Z,61.78
2023-05-17T11:11:37.535Z,62.53
2023-05-17T11:15:41.834Z,59.52
2023-05-17T11:19:56.613Z,52.16
2023-05-17T11:24:03.788Z,53.71
2023-05-17T11:28:11.184Z,56.81
2023-05-17T11:32:15.330Z,54.20
2023-05-17T11:36:20.545Z,56.89
2023-05-17T11:40:28.626Z,55.46
2023-05-17T11:44:33.167Z,59.79
2023-05-17T11:48:37.867Z,56.42
2023-05-17T11:52:41.957Z,53.10
2023-05-17T11:56:44.719Z,55.60
2023-05-17T12:00:47.498Z,53.96
2023-05-17T12:04:51.629Z,57.32
2023-05-17T12:08:54.413Z,57.46
2023-05-17T12:12:57.873Z,55.51
2023-05-17T12:17:01.977Z,56.42
2023-05-17T12:21:06.889Z,54.28
2023-05-17T12:25:20.316Z,51.26
2023-05-17T12:29:24.924Z,48.13
2023-05-17T12:33:27.830Z,51.03
2023-05-17T12:37:32.145Z,55.04
2023-05-17T12:41:34.912Z,56.77
2023-05-17T12:45:37.738Z,48.26
2023-05-17T12:49:41.335Z,49.91
2023-05-17T12:53:46.508Z,47.51
2023-05-17T12:57:52.665Z,50.33
2023-05-17T13:01:56.621Z,53.07
2023-05-17T13:06:04.315Z,51.07
2023-05-17T13:10:21.247Z,50.19
2023-05-17T13:14:38.059Z,46.36
2023-05-17T13:18:51.525Z,46.85
2023-05-17T13:22:54.855Z,42.27
2023-05-17T13:26:58.904Z,42.12
2023-05-17T13:31:01.625Z,46.77
2023-05-17T13:35:04.757Z,45.74
2023-05-17T13:39:07.447Z,43.63
2023-05-17T13:43:11.502Z,45.15
2023-05-17T13:47:14.260Z,48.24
2023-05-17T13:51:17.028Z,43.33
2023-05-17T13:55:19.724Z,41.82
2023-05-17T13:59:24.149Z,43.22
2023-05-17T14:03:27.044Z,49.44
2023-05-17T14:07:30.092Z,41.82
2023-05-17T14:11:32.868Z,50.61
2023-05-17T14:15:38.503Z,48.09
2023-05-17T14:19:41.223Z,44.28
2023-05-17T14:23:43.899Z,41.62
2023-05-17T14:27:46.833Z,45.08
2023-05-17T14:31:50.717Z,45.38
2023-05-17T14:35:53.401Z,43.08
2023-05-17T14:40:05.820Z,46.14
2023-05-17T14:44:08.951Z,45.80
2023-05-17T14:48:13.205Z,43.22
2023-05-17T14:52:16.135Z,42.34
2023-05-17T14:56:19.025Z,46.41
2023-05-17T15:00:23.420Z,43.25
2023-05-17T15:04:27.562Z,43.00
2023-05-17T15:08:30.563Z,40.24
2023-05-17T15:12:33.309Z,37.49
2023-05-17T15:16:35.904Z,42.85
2023-05-17T15:20:40.087Z,44.90
2023-05-17T15:24:42.765Z,42.51
2023-05-17T15:28:45.455Z,42.99
2023-05-17T15:32:48.158Z,39.23
2023-05-17T15:36:52.200Z,40.36
2023-05-17T15:41:02.609Z,41.57
2023-05-17T15:45:05.978Z,46.56
2023-05-17T15:49:08.766Z,41.62
2023-05-17T15:53:13.165Z,43.17
2023-05-17T15:57:16.046Z,44.80
2023-05-17T16:01:18.842Z,43.54
2023-05-17T16:05:21.845Z,45.06
2023-05-17T16:09:26.204Z,43.06
2023-05-17T16:13:29.147Z,43.34
2023-05-17T16:17:31.963Z,44.63
2023-05-17T16:21:35.565Z,45.92
2023-05-17T16:25:39.976Z,40.11
2023-05-17T16:29:42.885Z,42.46
2023-05-17T16:33:45.601Z,38.81
2023-05-17T16:37:49.947Z,42.35
2023-05-17T16:41:55.655Z,41.86
2023-05-17T16:45:58.338Z,45.72
2023-05-17T16:50:01.601Z,47.87
2023-05-17T16:54:04.466Z,42.57
2023-05-17T16:58:08.798Z,40.79
2023-05-17T17:02:12.852Z,43.85
2023-05-17T17:06:15.581Z,47.11
2023-05-17T17:10:19.999Z,44.64
2023-05-17T17:14:24.326Z,46.94
2023-05-17T17:18:26.957Z,44.83
2023-05-17T17:22:29.622Z,47.42
2023-05-17T17:26:32.344Z,54.03
2023-05-17T17:30:36.349Z,52.07
2023-05-17T17:34:38.997Z,53.77
2023-05-17T17:38:41.750Z,56.81
2023-05-17T17:42:44.491Z,55.32
2023-05-17T17:46:48.675Z,48.64
2023-05-17T17:50:51.371Z,54.66
2023-05-17T17:54:54.074Z,55.94
2023-05-17T17:58:57.179Z,53.39
2023-05-17T18:03:01.338Z,57.95
2023-05-17T18:07:04.077Z,58.72
2023-05-17T18:11:06.772Z,54.31
2023-05-17T18:15:10.795Z,56.57
2023-05-17T18:19:15.017Z,50.10
2023-05-17T18:23:17.763Z,56.04
2023-05-17T18:27:20.504Z,59.49
2023-05-17T18:31:23.227Z,61.36
2023-05-17T18:35:27.399Z,54.77
2023-05-17T18:39:30.282Z,59.09
2023-05-17T18:43:33.317Z,57.48
2023-05-17T18:47:36.446Z,62.07
2023-05-17T18:51:40.511Z,64.34
2023-05-17T18:55:43.163Z,66.73
2023-05-17T18:59:45.816Z,65.05
2023-05-17T19:03:51.394Z,66.99
2023-05-17T19:07:55.760Z,69.10
2023-05-17T19:11:58.465Z,72.59
2023-05-17T19:16:02.962Z,72.53
2023-05-17T19:20:06.557Z,72.07
2023-05-17T19:24:10.894Z,71.96
2023-05-17T19:28:13.574Z,75.82
2023-05-17T19:32:16.192Z,75.91
2023-05-17T19:36:18.919Z,78.27
2023-05-17T19:40:23.164Z,76.86
2023-05-17T19:44:25.957Z,75.97
2023-05-17T19:48:28.594Z,78.51
2023-05-17T19:52:31.269Z,77.56
2023-05-17T19:56:35.300Z,78.96
2023-05-17T20:00:38.572Z,78.54
2023-05-17T20:04:41.636Z,77.91
2023-05-17T20:08:44.391Z,77.23
2023-05-17T20:12:48.452Z,79.12
2023-05-17T20:16:51.284Z,79.32
2023-05-17T20:20:55.806Z,80.46
2023-05-17T20:24:58.617Z,80.19
2023-05-17T20:29:02.730Z,81.58
2023-05-17T20:33:06.883Z,83.23
2023-05-17T20:37:11.253Z,82.70
2023-05-17T20:41:14.970Z,80.26
2023-05-17T20:45:18.960Z,82.46
2023-05-17T20:49:21.762Z,82.53
2023-05-17T20:53:24.642Z,81.71
2023-05-17T20:57:27.416Z,83.42
2023-05-17T21:01:31.620Z,83.37
2023-05-17T21:05:36.202Z,81.47
2023-05-17T21:09:39.235Z,81.92
2023-05-17T21:13:41.905Z,81.64
2023-05-17T21:17:46.101Z,81.75
2023-05-17T21:21:48.830Z,79.63
2023-05-17T21:25:51.488Z,80.16
2023-05-17T21:29:54.411Z,79.57
2023-05-17T21:33:58.634Z,79.92
2023-05-17T21:38:01.306Z,81.19
2023-05-17T21:42:04.289Z,80.76
2023-05-17T21:46:07.100Z,82.35
2023-05-17T21:50:12.504Z,81.62
2023-05-17T21:54:15.175Z,81.98
2023-05-17T21:58:19.452Z,80.39
2023-05-17T22:02:22.125Z,80.19
2023-05-17T22:06:27.566Z,79.40
2023-05-17T22:10:30.522Z,80.83
2023-05-17T22:14:35.119Z,81.70
2023-05-17T22:18:38.233Z,82.31
2023-05-17T22:22:42.374Z,82.66
2023-05-17T22:26:45.136Z,81.70
2023-05-17T22:30:48.661Z,81.35
2023-05-17T22:34:52.862Z,82.25
2023-05-17T22:38:57.921Z,84.05
2023-05-17T22:43:01.389Z,83.35
2023-05-17T22:47:06.167Z,84.18
2023-05-17T22:51:08.972Z,85.85
2023-05-17T22:55:13.130Z,81.73
2023-05-17T22:59:15.962Z,80.48
2023-05-17T23:03:18.745Z,83.30
2023-05-17T23:07:21.870Z,85.26
2023-05-17T23:11:25.920Z,85.33
2023-05-17T23:15:29.691Z,82.37
2023-05-17T23:19:33.939Z,84.34
2023-05-17T23:23:37.964Z,83.55
2023-05-17T23:27:44.688Z,82.69
2023-05-17T23:31:48.731Z,81.48
2023-05-17T23:35:53.495Z,83.75
2023-05-17T23:39:56.539Z,85.44
2023-05-17T23:44:00.721Z,82.30
2023-05-17T23:48:03.339Z,84.02
2023-05-17T23:52:11.111Z,84.84
2023-05-17T23:56:13.773Z,84.04
